createdAt,value
2018-05-08T00:01:06.424Z,2.33
2018-05-08T00:03:37.213Z,1.97
2018-05-08T00:06:08.028Z,1.83
2018-05-08T00:08:38.812Z,2.03
2018-05-08T00:11:09.617Z,1.70
2018-05-08T00:13:40.392Z,1.93
2018-05-08T00:16:11.190Z,1.80
2018-05-08T00:18:41.984Z,2.10
2018-05-08T00:21:12.847Z,2.20
2018-05-08T00:23:43.618Z,2.20
2018-05-08T00:26:14.420Z,1.90
2018-05-08T00:28:45.207Z,1.77
2018-05-08T00:31:16.003Z,2.47
2018-05-08T00:33:46.774Z,1.67
2018-05-08T00:36:18.641Z,1.90
2018-05-08T00:38:49.444Z,2.05
2018-05-08T00:41:20.240Z,1.97
2018-05-08T00:43:51.011Z,2.17
2018-05-08T00:46:21.807Z,2.00
2018-05-08T00:48:52.591Z,2.10
2018-05-08T00:51:23.435Z,2.03
2018-05-08T00:53:54.215Z,2.00
2018-05-08T00:56:25.017Z,1.80
2018-05-08T00:58:55.787Z,1.93
2018-05-08T01:01:26.565Z,2.60
2018-05-08T01:03:57.332Z,2.30
2018-05-08T01:06:28.124Z,1.90
2018-05-08T01:08:58.925Z,1.93
2018-05-08T01:11:29.731Z,2.07
2018-05-08T01:14:00.498Z,2.10
2018-05-08T01:16:31.328Z,2.00
2018-05-08T01:19:02.068Z,2.60
2018-05-08T01:21:32.898Z,2.20
2018-05-08T01:24:03.708Z,1.70
2018-05-08T01:26:34.514Z,1.80
2018-05-08T01:29:05.289Z,2.30
2018-05-08T01:31:36.126Z,2.40
2018-05-08T01:34:06.835Z,1.90
2018-05-08T01:36:37.613Z,2.00
2018-05-08T01:39:08.380Z,2.07
2018-05-08T01:41:39.158Z,2.27
2018-05-08T01:44:09.969Z,2.10
2018-05-08T01:46:40.784Z,2.30
2018-05-08T01:49:11.560Z,1.97
2018-05-08T01:51:42.366Z,1.83
2018-05-08T01:54:13.199Z,2.00
2018-05-08T01:56:43.979Z,2.23
2018-05-08T01:59:14.759Z,2.17
2018-05-08T02:01:45.549Z,2.37
2018-05-08T02:04:16.338Z,2.40
2018-05-08T02:06:47.148Z,2.33
2018-05-08T02:09:18.006Z,2.60
2018-05-08T02:11:48.799Z,2.23
2018-05-08T02:14:19.611Z,2.70
2018-05-08T02:16:50.403Z,2.27
2018-05-08T02:19:21.167Z,2.27
2018-05-08T02:21:51.987Z,2.00
2018-05-08T02:24:22.747Z,2.10
2018-05-08T02:26:53.567Z,2.30
2018-05-08T02:29:24.349Z,2.27
2018-05-08T02:31:55.117Z,2.30
2018-05-08T02:34:25.908Z,2.07
2018-05-08T02:36:56.705Z,2.10
2018-05-08T02:39:27.471Z,2.50
2018-05-08T02:41:58.256Z,2.13
2018-05-08T02:44:29.036Z,2.23
2018-05-08T02:46:59.824Z,2.93
2018-05-08T02:49:30.605Z,2.90
2018-05-08T02:52:01.387Z,2.30
2018-05-08T02:54:32.166Z,2.70
2018-05-08T02:57:02.991Z,2.20
2018-05-08T02:59:33.752Z,2.20
2018-05-08T03:02:04.525Z,2.30
2018-05-08T03:04:35.312Z,3.30
2018-05-08T03:07:06.144Z,2.13
2018-05-08T03:09:36.925Z,2.20
2018-05-08T03:12:07.731Z,2.37
2018-05-08T03:14:38.521Z,2.30
2018-05-08T03:17:10.661Z,2.57
2018-05-08T03:19:41.465Z,3.15
2018-05-08T03:22:12.352Z,2.23
2018-05-08T03:24:43.117Z,2.97
2018-05-08T03:27:13.887Z,2.47
2018-05-08T03:29:44.680Z,2.67
2018-05-08T03:32:15.476Z,2.83
2018-05-08T03:34:46.300Z,2.53
2018-05-08T03:37:17.129Z,2.30
2018-05-08T03:39:47.939Z,1.90
2018-05-08T03:42:18.720Z,2.37
2018-05-08T03:44:49.515Z,2.50
2018-05-08T03:47:20.401Z,2.17
2018-05-08T03:49:51.205Z,2.47
2018-05-08T03:52:21.979Z,2.90
2018-05-08T03:54:52.745Z,2.50
2018-05-08T03:57:23.538Z,1.97
2018-05-08T03:59:54.334Z,2.30
2018-05-08T04:02:37.497Z,2.50
2018-05-08T04:05:20.637Z,2.22
2018-05-08T04:08:03.867Z,2.20
2018-05-08T04:10:34.672Z,2.30
2018-05-08T04:13:05.460Z,2.10
2018-05-08T04:15:36.307Z,2.10
2018-05-08T04:18:07.078Z,2.00
2018-05-08T04:20:37.861Z,2.20
2018-05-08T04:23:08.684Z,2.23
2018-05-08T04:25:39.457Z,2.23
2018-05-08T04:28:10.260Z,1.93
2018-05-08T04:30:41.043Z,2.00
2018-05-08T04:33:11.840Z,2.60
2018-05-08T04:35:42.607Z,2.30
2018-05-08T04:38:13.401Z,2.80
2018-05-08T04:40:44.183Z,2.23
2018-05-08T04:43:14.975Z,2.20
2018-05-08T04:45:45.763Z,2.27
2018-05-08T04:48:16.617Z,2.67
2018-05-08T04:50:47.392Z,2.50
2018-05-08T04:53:18.227Z,2.50
2018-05-08T04:55:49.074Z,1.97
2018-05-08T04:58:19.860Z,2.30
2018-05-08T05:00:50.648Z,2.20
2018-05-08T05:03:21.439Z,2.80
2018-05-08T05:05:52.212Z,2.23
2018-05-08T05:08:23.010Z,2.23
2018-05-08T05:10:53.785Z,2.20
2018-05-08T05:13:25.567Z,2.40
2018-05-08T05:16:03.223Z,3.17
2018-05-08T05:18:34.040Z,2.80
2018-05-08T05:21:04.837Z,2.80
2018-05-08T05:23:35.619Z,2.70
2018-05-08T05:26:06.413Z,2.77
2018-05-08T05:28:37.229Z,2.83
2018-05-08T05:31:08.029Z,2.80
2018-05-08T05:33:38.832Z,2.60
2018-05-08T05:36:09.604Z,2.67
2018-05-08T05:38:40.432Z,2.40
2018-05-08T05:41:11.272Z,2.60
2018-05-08T05:43:42.101Z,2.27
2018-05-08T05:46:12.915Z,2.43
2018-05-08T05:48:43.694Z,2.50
2018-05-08T05:51:14.513Z,2.60
2018-05-08T05:53:45.311Z,2.70
2018-05-08T05:56:16.089Z,2.33
2018-05-08T05:58:46.898Z,2.70
2018-05-08T06:01:17.706Z,2.47
2018-05-08T06:03:48.595Z,4.90
2018-05-08T06:06:19.452Z,2.70
2018-05-08T06:08:50.201Z,2.50
2018-05-08T06:11:20.994Z,2.73
2018-05-08T06:13:51.801Z,2.30
2018-05-08T06:16:22.580Z,2.57
2018-05-08T06:18:53.404Z,2.30
2018-05-08T06:21:24.185Z,2.30
2018-05-08T06:23:55.007Z,2.27
2018-05-08T06:26:25.772Z,2.70
2018-05-08T06:28:56.585Z,2.70
2018-05-08T06:31:27.374Z,2.50
2018-05-08T06:33:58.183Z,2.30
2018-05-08T06:36:28.976Z,2.60
2018-05-08T06:38:59.876Z,2.50
2018-05-08T06:41:30.569Z,2.30
2018-05-08T06:44:01.371Z,2.33
2018-05-08T06:46:32.166Z,2.23
2018-05-08T06:49:02.958Z,2.37
2018-05-08T06:51:33.727Z,2.03
2018-05-08T06:54:04.544Z,1.90
2018-05-08T06:56:35.338Z,2.70
2018-05-08T06:59:06.122Z,2.70
2018-05-08T07:01:36.891Z,2.77
2018-05-08T07:04:07.671Z,2.40
2018-05-08T07:06:38.473Z,1.97
2018-05-08T07:09:09.414Z,3.07
2018-05-08T07:11:40.079Z,2.67
2018-05-08T07:14:10.876Z,2.60
2018-05-08T07:16:41.646Z,2.60
2018-05-08T07:19:12.447Z,2.40
2018-05-08T07:21:43.248Z,2.70
2018-05-08T07:24:14.075Z,2.90
2018-05-08T07:26:44.875Z,2.47
2018-05-08T07:29:15.688Z,2.63
2018-05-08T07:31:46.484Z,2.20
2018-05-08T07:34:17.292Z,2.13
2018-05-08T07:36:48.070Z,2.10
2018-05-08T07:39:18.871Z,2.20
2018-05-08T07:41:49.680Z,1.93
2018-05-08T07:44:20.457Z,2.20
2018-05-08T07:46:51.236Z,2.10
2018-05-08T07:49:22.016Z,2.70
2018-05-08T07:51:52.835Z,2.10
2018-05-08T07:54:23.606Z,2.30
2018-05-08T07:56:54.413Z,2.07
2018-05-08T07:59:25.194Z,2.17
2018-05-08T08:01:55.987Z,2.43
2018-05-08T08:04:26.778Z,2.30
2018-05-08T08:06:58.139Z,2.00
2018-05-08T08:09:28.930Z,2.20
2018-05-08T08:11:59.747Z,2.83
2018-05-08T08:14:30.520Z,2.00
2018-05-08T08:17:01.311Z,2.33
2018-05-08T08:19:32.099Z,2.27
2018-05-08T08:22:02.896Z,2.00
2018-05-08T08:24:33.693Z,2.20
2018-05-08T08:27:04.514Z,1.90
2018-05-08T08:29:35.264Z,2.10
2018-05-08T08:32:06.042Z,2.10
2018-05-08T08:34:36.859Z,2.13
2018-05-08T08:37:07.685Z,2.23
2018-05-08T08:39:38.455Z,2.50
2018-05-08T08:42:09.319Z,2.33
2018-05-08T08:44:40.111Z,2.57
2018-05-08T08:47:10.912Z,2.37
2018-05-08T08:49:41.708Z,2.23
2018-05-08T08:52:12.500Z,2.40
2018-05-08T08:54:43.296Z,2.33
2018-05-08T08:57:14.104Z,2.17
2018-05-08T08:59:44.874Z,2.43
2018-05-08T09:02:15.680Z,2.53
2018-05-08T09:04:46.468Z,2.07
2018-05-08T09:07:17.265Z,2.13
2018-05-08T09:09:48.055Z,2.20
2018-05-08T09:12:18.871Z,2.27
2018-05-08T09:14:49.673Z,2.53
2018-05-08T09:17:20.471Z,2.40
2018-05-08T09:19:51.335Z,2.13
2018-05-08T09:22:22.081Z,2.50
2018-05-08T09:24:52.859Z,3.00
2018-05-08T09:27:23.728Z,2.77
2018-05-08T09:29:54.460Z,2.67
2018-05-08T09:32:25.247Z,2.20
2018-05-08T09:34:56.063Z,2.43
2018-05-08T09:37:26.868Z,2.53
2018-05-08T09:39:57.657Z,2.47
2018-05-08T09:42:28.466Z,2.60
2018-05-08T09:44:59.928Z,2.83
2018-05-08T09:47:30.743Z,2.90
2018-05-08T09:50:01.550Z,2.97
2018-05-08T09:52:32.352Z,2.70
2018-05-08T09:55:03.160Z,2.60
2018-05-08T09:57:33.954Z,2.30
2018-05-08T10:00:04.749Z,3.00
2018-05-08T10:02:35.556Z,2.90
2018-05-08T10:05:06.323Z,2.80
2018-05-08T10:07:37.103Z,2.70
2018-05-08T10:10:07.867Z,2.60
2018-05-08T10:12:38.656Z,2.50
2018-05-08T10:15:09.449Z,3.00
2018-05-08T10:17:40.243Z,3.20
2018-05-08T10:20:11.017Z,2.73
2018-05-08T10:22:41.831Z,2.60
2018-05-08T10:25:12.628Z,2.70
2018-05-08T10:27:43.460Z,3.13
2018-05-08T10:30:14.278Z,3.00
2018-05-08T10:32:45.060Z,2.70
2018-05-08T10:35:15.848Z,2.70
2018-05-08T10:37:46.644Z,2.53
2018-05-08T10:40:17.440Z,2.60
2018-05-08T10:42:48.333Z,3.20
2018-05-08T10:45:19.013Z,3.17
2018-05-08T10:47:49.802Z,2.90
2018-05-08T10:50:20.572Z,3.40
2018-05-08T10:52:51.381Z,2.93
2018-05-08T10:55:22.148Z,2.77
2018-05-08T10:57:52.939Z,3.10
2018-05-08T11:00:23.711Z,3.03
2018-05-08T11:02:54.482Z,2.80
2018-05-08T11:05:25.243Z,2.90
2018-05-08T11:07:56.035Z,2.80
2018-05-08T11:10:26.837Z,2.77
2018-05-08T11:12:57.606Z,2.77
2018-05-08T11:15:28.400Z,2.70
2018-05-08T11:17:59.187Z,3.50
2018-05-08T11:20:29.952Z,2.80
2018-05-08T11:23:00.732Z,2.40
2018-05-08T11:25:31.511Z,2.40
2018-05-08T11:28:02.303Z,2.77
2018-05-08T11:30:33.068Z,2.70
2018-05-08T11:33:03.876Z,3.23
2018-05-08T11:35:34.672Z,2.40
2018-05-08T11:38:05.488Z,2.43
2018-05-08T11:40:36.284Z,2.30
2018-05-08T11:43:07.080Z,2.40
2018-05-08T11:45:37.867Z,2.60
2018-05-08T11:48:08.679Z,2.70
2018-05-08T11:50:39.464Z,2.83
2018-05-08T11:53:10.275Z,2.93
2018-05-08T11:55:41.897Z,2.63
2018-05-08T11:58:12.690Z,2.80
2018-05-08T12:00:43.476Z,2.70
2018-05-08T12:03:14.284Z,2.73
2018-05-08T12:05:45.093Z,2.83
2018-05-08T12:08:16.881Z,2.10
2018-05-08T12:10:47.643Z,2.70
2018-05-08T12:13:18.446Z,2.30
2018-05-08T12:15:49.219Z,2.30
2018-05-08T12:18:20.056Z,2.20
2018-05-08T12:20:50.839Z,2.47
2018-05-08T12:23:21.688Z,2.50
2018-05-08T12:25:52.451Z,2.27
2018-05-08T12:28:23.239Z,2.50
2018-05-08T12:30:54.023Z,2.40
2018-05-08T12:33:24.820Z,2.73
2018-05-08T12:35:55.601Z,3.10
2018-05-08T12:38:26.379Z,2.67
2018-05-08T12:40:57.187Z,2.03
2018-05-08T12:43:27.968Z,2.30
2018-05-08T12:45:58.763Z,2.67
2018-05-08T12:48:29.579Z,2.50
2018-05-08T12:51:00.360Z,2.40
2018-05-08T12:53:31.195Z,3.07
2018-05-08T12:56:01.967Z,2.90
2018-05-08T12:58:32.781Z,2.13
2018-05-08T13:01:03.580Z,2.83
2018-05-08T13:03:34.450Z,2.10
2018-05-08T13:06:05.364Z,2.50
2018-05-08T13:08:36.241Z,2.80
2018-05-08T13:11:07.064Z,2.30
2018-05-08T13:13:37.887Z,2.20
2018-05-08T13:16:08.738Z,2.07
2018-05-08T13:18:39.548Z,2.30
2018-05-08T13:21:10.325Z,2.50
2018-05-08T13:23:41.100Z,2.37
2018-05-08T13:26:11.882Z,2.30
2018-05-08T13:28:43.747Z,2.60
2018-05-08T13:31:14.537Z,2.50
2018-05-08T13:33:45.349Z,2.33
2018-05-08T13:36:16.165Z,2.53
2018-05-08T13:38:46.956Z,2.10
2018-05-08T13:41:17.756Z,2.10
2018-05-08T13:43:49.715Z,2.30
2018-05-08T13:46:20.504Z,2.20
2018-05-08T13:48:51.508Z,2.27
2018-05-08T13:51:22.320Z,2.00
2018-05-08T13:53:53.176Z,2.23
2018-05-08T13:56:23.964Z,2.50
2018-05-08T13:58:54.847Z,2.90
2018-05-08T14:01:25.649Z,2.60
2018-05-08T14:03:56.523Z,2.40
2018-05-08T14:06:27.433Z,2.50
2018-05-08T14:08:58.189Z,2.67
2018-05-08T14:11:29.048Z,2.50
2018-05-08T14:13:59.904Z,2.43
2018-05-08T14:16:30.674Z,2.60
2018-05-08T14:19:01.477Z,2.60
2018-05-08T14:21:32.262Z,2.50
2018-05-08T14:24:03.099Z,2.90
2018-05-08T14:26:33.883Z,2.20
2018-05-08T14:29:04.688Z,2.80
2018-05-08T14:31:35.495Z,2.53
2018-05-08T14:34:06.288Z,2.77
2018-05-08T14:36:37.573Z,2.40
2018-05-08T14:39:08.398Z,3.37
2018-05-08T14:41:39.227Z,2.40
2018-05-08T14:44:10.031Z,2.90
2018-05-08T14:46:40.820Z,2.20
2018-05-08T14:49:11.686Z,2.57
2018-05-08T14:51:42.483Z,2.50
2018-05-08T14:54:13.343Z,2.60
2018-05-08T14:56:44.174Z,2.70
2018-05-08T14:59:15.023Z,2.13
2018-05-08T15:01:45.793Z,2.60
2018-05-08T15:04:16.610Z,2.40
2018-05-08T15:06:47.396Z,2.27
2018-05-08T15:09:18.224Z,2.80
2018-05-08T15:11:49.114Z,2.60
2018-05-08T15:14:19.815Z,2.60
2018-05-08T15:16:50.635Z,2.87
2018-05-08T15:19:21.445Z,2.63
2018-05-08T15:21:52.242Z,2.77
2018-05-08T15:24:23.046Z,2.47
2018-05-08T15:26:53.847Z,2.37
2018-05-08T15:29:24.640Z,3.00
2018-05-08T15:31:55.428Z,2.70
2018-05-08T15:34:26.257Z,2.57
2018-05-08T15:36:57.023Z,3.30
2018-05-08T15:39:27.798Z,3.00
2018-05-08T15:41:58.593Z,2.57
2018-05-08T15:44:29.401Z,2.37
2018-05-08T15:47:00.220Z,3.33
2018-05-08T15:49:31.935Z,3.47
2018-05-08T15:52:02.722Z,3.10
2018-05-08T15:54:33.504Z,3.00
2018-05-08T15:57:04.329Z,2.97
2018-05-08T15:59:35.165Z,2.97
2018-05-08T16:02:05.956Z,2.83
2018-05-08T16:04:36.811Z,2.80
2018-05-08T16:07:07.617Z,2.73
2018-05-08T16:09:38.431Z,2.70
2018-05-08T16:12:09.239Z,2.67
2018-05-08T16:14:40.037Z,3.07
2018-05-08T16:17:10.848Z,2.80
2018-05-08T16:19:41.682Z,3.00
2018-05-08T16:22:12.413Z,2.67
2018-05-08T16:24:43.195Z,3.13
2018-05-08T16:27:13.991Z,3.00
2018-05-08T16:29:44.792Z,2.60
2018-05-08T16:32:15.550Z,3.50
2018-05-08T16:34:46.967Z,3.50
2018-05-08T16:37:17.809Z,3.33
2018-05-08T16:39:48.622Z,3.27
2018-05-08T16:42:19.399Z,3.37
2018-05-08T16:44:50.190Z,3.50
2018-05-08T16:47:20.999Z,3.60
2018-05-08T16:49:51.770Z,3.50
2018-05-08T16:52:22.533Z,3.50
2018-05-08T16:54:53.341Z,3.80
2018-05-08T16:57:24.125Z,3.10
2018-05-08T16:59:54.896Z,3.80
2018-05-08T17:02:25.659Z,3.07
2018-05-08T17:04:56.479Z,2.90
2018-05-08T17:07:27.254Z,3.40
2018-05-08T17:09:58.096Z,3.20
2018-05-08T17:12:28.876Z,3.40
2018-05-08T17:14:59.715Z,3.63
2018-05-08T17:17:30.516Z,3.50
2018-05-08T17:20:01.346Z,2.80
2018-05-08T17:22:32.099Z,3.47
2018-05-08T17:25:02.925Z,3.50
2018-05-08T17:27:33.690Z,3.50
2018-05-08T17:30:04.536Z,3.83
2018-05-08T17:32:35.335Z,3.50
2018-05-08T17:35:06.127Z,3.30
2018-05-08T17:37:36.907Z,3.30
2018-05-08T17:40:07.713Z,3.67
2018-05-08T17:42:38.500Z,3.50
2018-05-08T17:45:09.331Z,3.30
2018-05-08T17:47:40.168Z,3.60
2018-05-08T17:50:12.914Z,3.40
2018-05-08T17:52:43.716Z,3.40
2018-05-08T17:55:14.512Z,3.23
2018-05-08T17:57:45.279Z,3.00
2018-05-08T18:00:16.184Z,3.47
2018-05-08T18:02:46.949Z,3.70
2018-05-08T18:05:17.848Z,3.63
2018-05-08T18:07:48.645Z,3.50
2018-05-08T18:10:19.541Z,3.43
2018-05-08T18:12:50.421Z,3.43
2018-05-08T18:15:21.267Z,3.03
2018-05-08T18:17:52.072Z,3.80
2018-05-08T18:20:22.868Z,3.70
2018-05-08T18:22:53.675Z,4.00
2018-05-08T18:25:24.477Z,3.23
2018-05-08T18:27:56.079Z,3.63
2018-05-08T18:30:26.915Z,3.43
2018-05-08T18:32:57.756Z,3.43
2018-05-08T18:35:28.556Z,3.40
2018-05-08T18:37:59.348Z,3.73
2018-05-08T18:40:30.143Z,3.30
2018-05-08T18:43:00.908Z,4.20
2018-05-08T18:45:31.734Z,3.43
2018-05-08T18:48:09.688Z,3.50
2018-05-08T18:50:40.487Z,3.67
2018-05-08T18:53:11.246Z,3.33
2018-05-08T18:55:42.044Z,3.80
2018-05-08T18:58:12.856Z,4.17
2018-05-08T19:00:49.741Z,3.60
2018-05-08T19:03:20.621Z,3.20
2018-05-08T19:05:51.380Z,3.77
2018-05-08T19:08:22.168Z,3.40
2018-05-08T19:10:59.111Z,3.27
2018-05-08T19:13:29.906Z,3.80
2018-05-08T19:16:02.668Z,3.43
2018-05-08T19:18:39.484Z,3.30
2018-05-08T19:21:10.356Z,3.80
2018-05-08T19:23:47.325Z,3.33
2018-05-08T19:26:18.166Z,3.60
2018-05-08T19:28:55.120Z,3.80
2018-05-08T19:31:25.927Z,4.10
2018-05-08T19:33:56.731Z,5.33
2018-05-08T19:36:33.656Z,4.33
2018-05-08T19:39:04.460Z,4.80
2018-05-08T19:41:35.267Z,9.07
2018-05-08T19:44:06.076Z,9.73
2018-05-08T19:46:36.933Z,8.10
2018-05-08T19:49:07.705Z,7.17
2018-05-08T19:51:38.491Z,9.03
2018-05-08T19:54:09.276Z,5.37
2018-05-08T19:56:40.035Z,3.80
2018-05-08T19:59:10.846Z,3.93
2018-05-08T20:01:41.628Z,5.10
2018-05-08T20:04:12.407Z,6.37
2018-05-08T20:06:43.262Z,4.30
2018-05-08T20:09:14.039Z,5.40
2018-05-08T20:11:44.823Z,4.73
2018-05-08T20:14:15.607Z,3.63
2018-05-08T20:16:46.392Z,4.80
2018-05-08T20:19:17.179Z,3.77
2018-05-08T20:21:47.972Z,3.70
2018-05-08T20:24:18.778Z,4.20
2018-05-08T20:26:49.604Z,4.43
2018-05-08T20:29:20.396Z,5.53
2018-05-08T20:31:51.201Z,3.70
2018-05-08T20:34:21.991Z,3.20
2018-05-08T20:36:52.779Z,3.00
2018-05-08T20:39:23.544Z,3.60
2018-05-08T20:41:54.332Z,3.53
2018-05-08T20:44:25.100Z,3.40
2018-05-08T20:46:55.889Z,3.30
2018-05-08T20:49:26.662Z,3.67
2018-05-08T20:51:57.431Z,3.53
2018-05-08T20:54:28.213Z,3.40
2018-05-08T20:56:58.995Z,3.70
2018-05-08T20:59:29.783Z,3.83
2018-05-08T21:02:00.564Z,4.07
2018-05-08T21:04:31.323Z,3.73
2018-05-08T21:07:02.114Z,3.70
2018-05-08T21:09:32.883Z,4.20
2018-05-08T21:12:03.928Z,9.63
2018-05-08T21:14:34.739Z,4.93
2018-05-08T21:17:05.684Z,4.70
2018-05-08T21:19:36.512Z,3.83
2018-05-08T21:22:07.312Z,3.87
2018-05-08T21:24:38.090Z,3.57
2018-05-08T21:27:08.900Z,3.43
2018-05-08T21:29:45.851Z,3.13
2018-05-08T21:32:16.645Z,3.57
2018-05-08T21:34:47.423Z,3.63
2018-05-08T21:37:18.219Z,3.40
2018-05-08T21:39:49.034Z,3.70
2018-05-08T21:42:19.780Z,3.40
2018-05-08T21:44:50.551Z,4.60
2018-05-08T21:47:21.336Z,3.73
2018-05-08T21:49:52.120Z,3.83
2018-05-08T21:52:22.912Z,3.53
2018-05-08T21:54:53.689Z,3.60
2018-05-08T21:57:24.484Z,3.60
2018-05-08T21:59:55.247Z,3.27
2018-05-08T22:02:26.033Z,3.30
2018-05-08T22:04:56.854Z,3.83
2018-05-08T22:07:27.646Z,4.77
2018-05-08T22:09:58.417Z,4.40
2018-05-08T22:12:29.207Z,3.80
2018-05-08T22:15:00.000Z,3.73
2018-05-08T22:17:30.775Z,3.93
2018-05-08T22:20:01.569Z,3.80
2018-05-08T22:22:32.425Z,4.10
2018-05-08T22:25:03.136Z,3.50
2018-05-08T22:27:33.929Z,3.80
2018-05-08T22:30:04.737Z,4.00
2018-05-08T22:32:35.537Z,3.93
2018-05-08T22:35:06.435Z,3.93
2018-05-08T22:37:37.144Z,3.73
2018-05-08T22:40:07.918Z,4.40
2018-05-08T22:42:38.710Z,4.50
2018-05-08T22:45:09.472Z,3.70
2018-05-08T22:47:40.261Z,3.50
2018-05-08T22:50:11.069Z,4.53
2018-05-08T22:52:42.430Z,4.17
2018-05-08T22:55:13.237Z,4.00
2018-05-08T22:57:44.019Z,4.10
2018-05-08T23:00:14.823Z,4.03
2018-05-08T23:02:45.648Z,3.73
2018-05-08T23:05:16.439Z,3.87
2018-05-08T23:07:47.219Z,3.70
2018-05-08T23:10:17.981Z,4.13
2018-05-08T23:12:48.829Z,4.20
2018-05-08T23:15:19.621Z,4.40
2018-05-08T23:17:50.395Z,3.70
2018-05-08T23:20:21.184Z,4.67
2018-05-08T23:22:51.989Z,4.87
2018-05-08T23:25:22.752Z,4.40
2018-05-08T23:27:53.541Z,4.53
2018-05-08T23:30:24.307Z,3.83
2018-05-08T23:32:55.131Z,4.27
2018-05-08T23:35:25.931Z,4.10
2018-05-08T23:37:56.747Z,4.30
2018-05-08T23:40:27.507Z,4.73
2018-05-08T23:42:58.297Z,4.40
2018-05-08T23:45:29.040Z,5.20
2018-05-08T23:47:59.865Z,4.73
2018-05-08T23:50:30.631Z,4.37
2018-05-08T23:53:01.411Z,5.13
2018-05-08T23:55:32.195Z,4.97
2018-05-08T23:58:03.015Z,4.17
